Shinkomaru — JD2361 — position and weather

sailwx.info

Track history (hours):
 
Tides and Currents Weather Stations Pressure Air Temp Water Temp Dewpoint Dewpoint Depression Visibility Wind Speed Wind Dir Waves Ship Positions

Shinkomaru

Last reported at 2017-Oct-21 15:55 UTC. Time now 2017-Oct-23 05:55 UTC.
Position N 34°41' E 134°49'.

Length 130 m; draft 6.8 m.

Type: Cargo ship. MMSI: 431000139.

Date/timePositionNaut miles runAvg speedWind from/ knotsBaromVisibWave heightAir tempDewpointWater temp
2017-Oct-21 15:55N 34°41' E 134°49'1 0.1
2017-Oct-20 19:30N 34°42' E 134°50'3 4.9
2017-Oct-20 18:53N 34°39' E 134°51'510.7
2017-Oct-20 18:27N 34°37' E 134°56'510.3
2017-Oct-20 18:00N 34°37' E 135°02'5 9.5
2017-Oct-20 17:30N 34°36' E 135°08'713.0
2017-Oct-20 17:00N 34°38' E 135°15'4 8.9
2017-Oct-20 16:30N 34°42' E 135°14'0 0.3
2017-Oct-20 15:55N 34°42' E 135°14'0 0.0
2017-Oct-20 15:25N 34°42' E 135°14'0 0.0
2017-Oct-20 14:55N 34°42' E 135°14'0 0.0
2017-Oct-20 14:25N 34°42' E 135°14'0 0.0
2017-Oct-20 13:25N 34°42' E 135°14'0 0.0
2017-Oct-20 12:43N 34°42' E 135°14'0 0.0
2017-Oct-20 12:25N 34°42' E 135°14'0 0.0
2017-Oct-20 11:55N 34°42' E 135°14'0 0.0
2017-Oct-20 11:25N 34°42' E 135°14'0 0.0
2017-Oct-20 10:49N 34°42' E 135°14'0 0.0
2017-Oct-20 10:25N 34°42' E 135°14'0 0.0
2017-Oct-20 09:55N 34°42' E 135°14'0 0.0
2017-Oct-20 09:19N 34°42' E 135°14'0 0.0
2017-Oct-20 08:55N 34°42' E 135°14'0 0.0
2017-Oct-20 08:25N 34°42' E 135°14'0 0.0
2017-Oct-20 07:55N 34°42' E 135°14'0 0.0
2017-Oct-20 07:25N 34°42' E 135°14'0 0.0
2017-Oct-20 06:55N 34°42' E 135°14'0 0.0
2017-Oct-20 06:25N 34°42' E 135°14'0 0.0
2017-Oct-20 05:55N 34°42' E 135°14'0 0.0
2017-Oct-20 05:25N 34°42' E 135°14'0 0.0
2017-Oct-20 04:49N 34°42' E 135°14'0 0.7
2017-Oct-20 04:29N 34°42' E 135°14'3 6.0
2017-Oct-20 04:00N 34°39' E 135°16'4 9.1
2017-Oct-20 03:30N 34°35' E 135°13'612.5
2017-Oct-20 03:00N 34°35' E 135°05'712.3
2017-Oct-20 02:24N 34°36' E 134°56'711.7
2017-Oct-20 01:49N 34°40' E 134°49'1 0.0
2017-Oct-18 15:24N 34°42' E 134°50'5 7.8
2017-Oct-18 14:44N 34°37' E 134°54'810.9
2017-Oct-18 14:00N 34°36' E 135°03'713.3
2017-Oct-18 13:30N 34°37' E 135°11'5 8.9
2017-Oct-18 13:00N 34°40' E 135°15'2 2.8
2017-Oct-18 12:20N 34°42' E 135°14'0 0.0
2017-Oct-18 11:56N 34°42' E 135°14'0 0.0
2017-Oct-18 11:26N 34°42' E 135°14'0 0.0
2017-Oct-18 10:56N 34°42' E 135°14'0 0.0
2017-Oct-18 10:14N 34°42' E 135°14'0 0.0
2017-Oct-18 09:56N 34°42' E 135°14'0 0.0
2017-Oct-18 09:26N 34°42' E 135°14'0 0.0
2017-Oct-18 08:56N 34°42' E 135°14'0 0.0
2017-Oct-18 08:20N 34°42' E 135°14'0 0.0
2017-Oct-18 07:50N 34°42' E 135°14'0 0.0
2017-Oct-18 07:20N 34°42' E 135°14'0 0.0
2017-Oct-18 06:56N 34°42' E 135°14'0 0.0
2017-Oct-18 06:26N 34°42' E 135°14'0 0.0
2017-Oct-18 05:56N 34°42' E 135°14'0 0.0
2017-Oct-18 05:26N 34°42' E 135°14'0 0.0
2017-Oct-18 04:56N 34°42' E 135°14'0 0.0
2017-Oct-18 04:14N 34°42' E 135°14'0 0.0
2017-Oct-18 03:56N 34°42' E 135°14'0 0.0
2017-Oct-18 03:20N 34°42' E 135°14'0 0.0
2017-Oct-18 02:56N 34°42' E 135°14'0 0.0
2017-Oct-18 02:26N 34°42' E 135°14'0 0.0
2017-Oct-18 01:56N 34°42' E 135°14'0 0.0
2017-Oct-18 01:26N 34°42' E 135°14'0 0.0
2017-Oct-18 00:56N 34°42' E 135°14'0 0.0
2017-Oct-18 00:08N 34°42' E 135°14'0 0.0
2017-Oct-17 23:56N 34°42' E 135°14'0 0.0
2017-Oct-17 23:20N 34°42' E 135°14'0 0.0
2017-Oct-17 22:56N 34°42' E 135°14'0 0.0
2017-Oct-17 22:26N 34°42' E 135°14'0 0.0
2017-Oct-17 21:56N 34°42' E 135°14'0 0.0
2017-Oct-17 21:26N 34°42' E 135°14'0 0.0
2017-Oct-17 20:50N 34°42' E 135°14'0 0.0
2017-Oct-17 20:26N 34°42' E 135°14'0 0.0
2017-Oct-17 19:56N 34°42' E 135°14'0 0.0
2017-Oct-17 19:26N 34°42' E 135°14'0 0.0
2017-Oct-17 18:56N 34°42' E 135°14'0 0.0
2017-Oct-17 18:26N 34°42' E 135°14'0 0.0
2017-Oct-17 17:56N 34°42' E 135°14'0 0.0
2017-Oct-17 17:26N 34°42' E 135°14'0 0.0
2017-Oct-17 16:56N 34°42' E 135°14'0 0.0
2017-Oct-17 16:26N 34°42' E 135°14'0 0.0
2017-Oct-17 15:50N 34°42' E 135°14'0 0.0
2017-Oct-17 15:20N 34°42' E 135°14'0 0.0
2017-Oct-17 14:56N 34°42' E 135°14'0 0.0
2017-Oct-17 14:26N 34°42' E 135°14'0 0.0
2017-Oct-17 13:44N 34°42' E 135°14'0 0.0
2017-Oct-17 13:26N 34°42' E 135°14'0 0.0
2017-Oct-17 12:56N 34°42' E 135°14'0 0.0
2017-Oct-17 12:26N 34°42' E 135°14'0 0.0
2017-Oct-17 11:56N 34°42' E 135°14'0 0.0
2017-Oct-17 11:26N 34°42' E 135°14'0 0.0
2017-Oct-17 10:56N 34°42' E 135°14'0 0.0
2017-Oct-17 10:26N 34°42' E 135°14'0 0.0
2017-Oct-17 09:56N 34°42' E 135°14'0 0.0
2017-Oct-17 09:30N 34°42' E 135°14'0 0.6
2017-Oct-17 09:00N 34°42' E 135°14'2 3.3
2017-Oct-17 08:30N 34°40' E 135°15'4 7.3
2017-Oct-17 08:00N 34°37' E 135°16'0 0.3
2017-Oct-17 07:21N 34°37' E 135°16'0 0.0
2017-Oct-17 06:51N 34°37' E 135°16'0 0.0
2017-Oct-17 06:27N 34°37' E 135°16'0 0.2
2017-Oct-17 05:51N 34°36' E 135°16'0 0.3
2017-Oct-17 05:30N 34°36' E 135°16'3 6.4
2017-Oct-17 05:00N 34°35' E 135°13'611.8
2017-Oct-17 04:30N 34°34' E 135°05'813.9
2017-Oct-17 03:56N 34°36' E 134°56'713.6
2017-Oct-17 03:27N 34°40' E 134°50'1 0.0
2017-Oct-15 23:30N 34°41' E 134°50'8 9.7
2017-Oct-15 22:39N 34°37' E 134°58'212.8
2017-Oct-15 22:29N 34°37' E 135°01'612.9
2017-Oct-15 22:00N 34°36' E 135°09'612.6
2017-Oct-15 21:30N 34°38' E 135°16'4 7.7
2017-Oct-15 21:00N 34°42' E 135°14'0 0.3
2017-Oct-15 20:30N 34°42' E 135°14'0 0.0
2017-Oct-15 20:00N 34°42' E 135°14'0 0.0
2017-Oct-15 19:30N 34°42' E 135°14'0 0.0
2017-Oct-15 19:00N 34°42' E 135°14'0 0.0
2017-Oct-15 18:30N 34°42' E 135°14'0 0.0
2017-Oct-15 18:00N 34°42' E 135°14'0 0.0
2017-Oct-15 17:30N 34°42' E 135°14'0 0.0
2017-Oct-15 17:00N 34°42' E 135°14'0 0.0
2017-Oct-15 16:30N 34°42' E 135°14'0 0.0
2017-Oct-15 16:00N 34°42' E 135°14'0 0.0
2017-Oct-15 15:30N 34°42' E 135°14'0 0.0
2017-Oct-15 14:54N 34°42' E 135°14'0 0.0
2017-Oct-15 13:54N 34°42' E 135°14'0 0.0
2017-Oct-15 13:30N 34°42' E 135°14'0 0.0
2017-Oct-15 13:00N 34°42' E 135°14'0 0.0
2017-Oct-15 12:30N 34°42' E 135°14'0 0.0
2017-Oct-15 12:00N 34°42' E 135°14'0 0.0
2017-Oct-15 11:30N 34°42' E 135°14'0 0.0
2017-Oct-15 11:00N 34°42' E 135°14'0 0.0
2017-Oct-15 10:30N 34°42' E 135°14'0 0.0
2017-Oct-15 10:00N 34°42' E 135°14'0 0.0
2017-Oct-15 09:24N 34°42' E 135°14'0 0.0
2017-Oct-15 09:00N 34°42' E 135°14'1 2.7
2017-Oct-15 08:30N 34°41' E 135°15'5 9.4
2017-Oct-15 08:00N 34°36' E 135°15'611.1
2017-Oct-15 07:30N 34°35' E 135°08'5 9.8
2017-Oct-15 07:00N 34°36' E 135°03'4 8.4
2017-Oct-15 06:30N 34°37' E 134°57'5 9.8
2017-Oct-15 05:57N 34°38' E 134°51'4 0.2
2017-Oct-14 13:13N 34°42' E 134°50'7 7.8
2017-Oct-14 12:23N 34°37' E 134°56'411.2
2017-Oct-14 11:59N 34°37' E 135°01'511.3
2017-Oct-14 11:30N 34°36' E 135°08'612.7
2017-Oct-14 11:00N 34°38' E 135°15'4 8.9
2017-Oct-14 10:30N 34°42' E 135°14'0 0.1
2017-Oct-14 09:55N 34°42' E 135°14'0 0.0
2017-Oct-14 09:25N 34°42' E 135°14'0 0.0
2017-Oct-14 08:55N 34°42' E 135°14'0 0.0
2017-Oct-14 08:19N 34°42' E 135°14'0 0.0
2017-Oct-14 07:55N 34°42' E 135°14'0 0.0
2017-Oct-14 07:25N 34°42' E 135°14'0 0.0
2017-Oct-14 06:55N 34°42' E 135°14'0 0.0
2017-Oct-14 06:25N 34°42' E 135°14'0 0.0
2017-Oct-14 05:55N 34°42' E 135°14'0 0.0
2017-Oct-14 05:19N 34°42' E 135°14'0 0.0
2017-Oct-14 04:43N 34°42' E 135°14'0 0.0
2017-Oct-14 04:25N 34°42' E 135°14'0 0.0
2017-Oct-14 03:55N 34°42' E 135°14'0 0.0
2017-Oct-14 03:19N 34°42' E 135°14'0 0.0
2017-Oct-14 02:55N 34°42' E 135°14'0 0.0
2017-Oct-14 02:25N 34°42' E 135°14'0 0.0
2017-Oct-14 01:55N 34°42' E 135°14'0 0.0
2017-Oct-14 01:25N 34°42' E 135°14'0 0.0
2017-Oct-14 00:55N 34°42' E 135°14'0 0.0
2017-Oct-14 00:07N 34°42' E 135°14'0 0.0
2017-Oct-13 23:55N 34°42' E 135°14'1 1.4
2017-Oct-13 23:30N 34°41' E 135°15'4 8.0
2017-Oct-13 23:00N 34°38' E 135°16'611.1
2017-Oct-13 22:30N 34°35' E 135°10'611.9
2017-Oct-13 22:00N 34°36' E 135°03'611.9
2017-Oct-13 21:28N 34°36' E 134°55'612.0
2017-Oct-13 20:57N 34°40' E 134°50'1 0.0
2017-Oct-12 12:12N 34°41' E 134°49'510.4
2017-Oct-12 11:41N 34°37' E 134°54'212.0
2017-Oct-12 11:29N 34°37' E 134°57'510.7
2017-Oct-12 11:00N 34°37' E 135°03'510.9
2017-Oct-12 10:30N 34°36' E 135°09'612.1
2017-Oct-12 10:00N 34°39' E 135°16'4 7.4
2017-Oct-12 09:31N 34°42' E 135°14'0 0.1
2017-Oct-12 08:56N 34°42' E 135°14'0 0.0
2017-Oct-12 08:26N 34°42' E 135°14'0 0.0
2017-Oct-12 07:44N 34°42' E 135°14'0 0.0
2017-Oct-12 07:20N 34°42' E 135°14'0 0.0
2017-Oct-12 06:56N 34°42' E 135°14'0 0.0
2017-Oct-12 06:20N 34°42' E 135°14'0 0.0
2017-Oct-12 05:56N 34°42' E 135°14'0 0.0
2017-Oct-12 05:26N 34°42' E 135°14'0 0.0
2017-Oct-12 04:56N 34°42' E 135°14'0 0.0
2017-Oct-12 04:26N 34°42' E 135°14'0 0.0
2017-Oct-12 03:56N 34°42' E 135°14'0 0.0
2017-Oct-12 03:26N 34°42' E 135°14'0 0.0
2017-Oct-12 02:56N 34°42' E 135°14'0 0.0
2017-Oct-12 02:20N 34°42' E 135°14'0 0.0
2017-Oct-12 01:44N 34°42' E 135°14'0 0.0
2017-Oct-12 01:26N 34°42' E 135°14'0 0.0
2017-Oct-12 00:56N 34°42' E 135°14'0 0.0
2017-Oct-12 00:20N 34°42' E 135°14'0 0.0
2017-Oct-11 23:56N 34°42' E 135°14'0 0.0
2017-Oct-11 23:26N 34°42' E 135°14'0 0.0
2017-Oct-11 22:56N 34°42' E 135°14'0 0.0
2017-Oct-11 22:30N 34°42' E 135°14'1 1.7
2017-Oct-11 22:01N 34°41' E 135°15'4 8.0
2017-Oct-11 21:30N 34°37' E 135°16'510.7
2017-Oct-11 21:00N 34°35' E 135°10'713.5
2017-Oct-11 20:30N 34°36' E 135°02'713.6
2017-Oct-11 20:00N 34°37' E 134°54'  
Track history (hours):
 
Tides and Currents Weather Stations Pressure Air Temp Water Temp Dewpoint Dewpoint Depression Visibility Wind Speed Wind Dir Waves Ship Positions

Shinkomaru

Last reported at 2017-Oct-21 15:55 UTC. Time now 2017-Oct-23 05:55 UTC.
Position N 34°41' E 134°49'.

Length 130 m; draft 6.8 m.

Type: Cargo ship. MMSI: 431000139.

Date/timePositionNaut miles runAvg speedWind from/ knotsBaromVisibWave heightAir tempDewpointWater temp
2017-Oct-21 15:55N 34°41' E 134°49'1 0.1
2017-Oct-20 19:30N 34°42' E 134°50'3 4.9
2017-Oct-20 18:53N 34°39' E 134°51'510.7
2017-Oct-20 18:27N 34°37' E 134°56'510.3
2017-Oct-20 18:00N 34°37' E 135°02'5 9.5
2017-Oct-20 17:30N 34°36' E 135°08'713.0
2017-Oct-20 17:00N 34°38' E 135°15'4 8.9
2017-Oct-20 16:30N 34°42' E 135°14'0 0.3
2017-Oct-20 15:55N 34°42' E 135°14'0 0.0
2017-Oct-20 15:25N 34°42' E 135°14'0 0.0
2017-Oct-20 14:55N 34°42' E 135°14'0 0.0
2017-Oct-20 14:25N 34°42' E 135°14'0 0.0
2017-Oct-20 13:25N 34°42' E 135°14'0 0.0
2017-Oct-20 12:43N 34°42' E 135°14'0 0.0
2017-Oct-20 12:25N 34°42' E 135°14'0 0.0
2017-Oct-20 11:55N 34°42' E 135°14'0 0.0
2017-Oct-20 11:25N 34°42' E 135°14'0 0.0
2017-Oct-20 10:49N 34°42' E 135°14'0 0.0
2017-Oct-20 10:25N 34°42' E 135°14'0 0.0
2017-Oct-20 09:55N 34°42' E 135°14'0 0.0
2017-Oct-20 09:19N 34°42' E 135°14'0 0.0
2017-Oct-20 08:55N 34°42' E 135°14'0 0.0
2017-Oct-20 08:25N 34°42' E 135°14'0 0.0
2017-Oct-20 07:55N 34°42' E 135°14'0 0.0
2017-Oct-20 07:25N 34°42' E 135°14'0 0.0
2017-Oct-20 06:55N 34°42' E 135°14'0 0.0
2017-Oct-20 06:25N 34°42' E 135°14'0 0.0
2017-Oct-20 05:55N 34°42' E 135°14'0 0.0
2017-Oct-20 05:25N 34°42' E 135°14'0 0.0
2017-Oct-20 04:49N 34°42' E 135°14'0 0.7
2017-Oct-20 04:29N 34°42' E 135°14'3 6.0
2017-Oct-20 04:00N 34°39' E 135°16'4 9.1
2017-Oct-20 03:30N 34°35' E 135°13'612.5
2017-Oct-20 03:00N 34°35' E 135°05'712.3
2017-Oct-20 02:24N 34°36' E 134°56'711.7
2017-Oct-20 01:49N 34°40' E 134°49'1 0.0
2017-Oct-18 15:24N 34°42' E 134°50'5 7.8
2017-Oct-18 14:44N 34°37' E 134°54'810.9
2017-Oct-18 14:00N 34°36' E 135°03'713.3
2017-Oct-18 13:30N 34°37' E 135°11'5 8.9
2017-Oct-18 13:00N 34°40' E 135°15'2 2.8
2017-Oct-18 12:20N 34°42' E 135°14'0 0.0
2017-Oct-18 11:56N 34°42' E 135°14'0 0.0
2017-Oct-18 11:26N 34°42' E 135°14'0 0.0
2017-Oct-18 10:56N 34°42' E 135°14'0 0.0
2017-Oct-18 10:14N 34°42' E 135°14'0 0.0
2017-Oct-18 09:56N 34°42' E 135°14'0 0.0
2017-Oct-18 09:26N 34°42' E 135°14'0 0.0
2017-Oct-18 08:56N 34°42' E 135°14'0 0.0
2017-Oct-18 08:20N 34°42' E 135°14'0 0.0
2017-Oct-18 07:50N 34°42' E 135°14'0 0.0
2017-Oct-18 07:20N 34°42' E 135°14'0 0.0
2017-Oct-18 06:56N 34°42' E 135°14'0 0.0
2017-Oct-18 06:26N 34°42' E 135°14'0 0.0
2017-Oct-18 05:56N 34°42' E 135°14'0 0.0
2017-Oct-18 05:26N 34°42' E 135°14'0 0.0
2017-Oct-18 04:56N 34°42' E 135°14'0 0.0
2017-Oct-18 04:14N 34°42' E 135°14'0 0.0
2017-Oct-18 03:56N 34°42' E 135°14'0 0.0
2017-Oct-18 03:20N 34°42' E 135°14'0 0.0
2017-Oct-18 02:56N 34°42' E 135°14'0 0.0
2017-Oct-18 02:26N 34°42' E 135°14'0 0.0
2017-Oct-18 01:56N 34°42' E 135°14'0 0.0
2017-Oct-18 01:26N 34°42' E 135°14'0 0.0
2017-Oct-18 00:56N 34°42' E 135°14'0 0.0
2017-Oct-18 00:08N 34°42' E 135°14'0 0.0
2017-Oct-17 23:56N 34°42' E 135°14'0 0.0
2017-Oct-17 23:20N 34°42' E 135°14'0 0.0
2017-Oct-17 22:56N 34°42' E 135°14'0 0.0
2017-Oct-17 22:26N 34°42' E 135°14'0 0.0
2017-Oct-17 21:56N 34°42' E 135°14'0 0.0
2017-Oct-17 21:26N 34°42' E 135°14'0 0.0
2017-Oct-17 20:50N 34°42' E 135°14'0 0.0
2017-Oct-17 20:26N 34°42' E 135°14'0 0.0
2017-Oct-17 19:56N 34°42' E 135°14'0 0.0
2017-Oct-17 19:26N 34°42' E 135°14'0 0.0
2017-Oct-17 18:56N 34°42' E 135°14'0 0.0
2017-Oct-17 18:26N 34°42' E 135°14'0 0.0
2017-Oct-17 17:56N 34°42' E 135°14'0 0.0
2017-Oct-17 17:26N 34°42' E 135°14'0 0.0
2017-Oct-17 16:56N 34°42' E 135°14'0 0.0
2017-Oct-17 16:26N 34°42' E 135°14'0 0.0
2017-Oct-17 15:50N 34°42' E 135°14'0 0.0
2017-Oct-17 15:20N 34°42' E 135°14'0 0.0
2017-Oct-17 14:56N 34°42' E 135°14'0 0.0
2017-Oct-17 14:26N 34°42' E 135°14'0 0.0
2017-Oct-17 13:44N 34°42' E 135°14'0 0.0
2017-Oct-17 13:26N 34°42' E 135°14'0 0.0
2017-Oct-17 12:56N 34°42' E 135°14'0 0.0
2017-Oct-17 12:26N 34°42' E 135°14'0 0.0
2017-Oct-17 11:56N 34°42' E 135°14'0 0.0
2017-Oct-17 11:26N 34°42' E 135°14'0 0.0
2017-Oct-17 10:56N 34°42' E 135°14'0 0.0
2017-Oct-17 10:26N 34°42' E 135°14'0 0.0
2017-Oct-17 09:56N 34°42' E 135°14'0 0.0
2017-Oct-17 09:30N 34°42' E 135°14'0 0.6
2017-Oct-17 09:00N 34°42' E 135°14'2 3.3
2017-Oct-17 08:30N 34°40' E 135°15'4 7.3
2017-Oct-17 08:00N 34°37' E 135°16'0 0.3
2017-Oct-17 07:21N 34°37' E 135°16'0 0.0
2017-Oct-17 06:51N 34°37' E 135°16'0 0.0
2017-Oct-17 06:27N 34°37' E 135°16'0 0.2
2017-Oct-17 05:51N 34°36' E 135°16'0 0.3
2017-Oct-17 05:30N 34°36' E 135°16'3 6.4
2017-Oct-17 05:00N 34°35' E 135°13'611.8
2017-Oct-17 04:30N 34°34' E 135°05'813.9
2017-Oct-17 03:56N 34°36' E 134°56'713.6
2017-Oct-17 03:27N 34°40' E 134°50'1 0.0
2017-Oct-15 23:30N 34°41' E 134°50'8 9.7
2017-Oct-15 22:39N 34°37' E 134°58'212.8
2017-Oct-15 22:29N 34°37' E 135°01'612.9
2017-Oct-15 22:00N 34°36' E 135°09'612.6
2017-Oct-15 21:30N 34°38' E 135°16'4 7.7
2017-Oct-15 21:00N 34°42' E 135°14'0 0.3
2017-Oct-15 20:30N 34°42' E 135°14'0 0.0
2017-Oct-15 20:00N 34°42' E 135°14'0 0.0
2017-Oct-15 19:30N 34°42' E 135°14'0 0.0
2017-Oct-15 19:00N 34°42' E 135°14'0 0.0
2017-Oct-15 18:30N 34°42' E 135°14'0 0.0
2017-Oct-15 18:00N 34°42' E 135°14'0 0.0
2017-Oct-15 17:30N 34°42' E 135°14'0 0.0
2017-Oct-15 17:00N 34°42' E 135°14'0 0.0
2017-Oct-15 16:30N 34°42' E 135°14'0 0.0
2017-Oct-15 16:00N 34°42' E 135°14'0 0.0
2017-Oct-15 15:30N 34°42' E 135°14'0 0.0
2017-Oct-15 14:54N 34°42' E 135°14'0 0.0
2017-Oct-15 13:54N 34°42' E 135°14'0 0.0
2017-Oct-15 13:30N 34°42' E 135°14'0 0.0
2017-Oct-15 13:00N 34°42' E 135°14'0 0.0
2017-Oct-15 12:30N 34°42' E 135°14'0 0.0
2017-Oct-15 12:00N 34°42' E 135°14'0 0.0
2017-Oct-15 11:30N 34°42' E 135°14'0 0.0
2017-Oct-15 11:00N 34°42' E 135°14'0 0.0
2017-Oct-15 10:30N 34°42' E 135°14'0 0.0
2017-Oct-15 10:00N 34°42' E 135°14'0 0.0
2017-Oct-15 09:24N 34°42' E 135°14'0 0.0
2017-Oct-15 09:00N 34°42' E 135°14'1 2.7
2017-Oct-15 08:30N 34°41' E 135°15'5 9.4
2017-Oct-15 08:00N 34°36' E 135°15'611.1
2017-Oct-15 07:30N 34°35' E 135°08'5 9.8
2017-Oct-15 07:00N 34°36' E 135°03'4 8.4
2017-Oct-15 06:30N 34°37' E 134°57'5 9.8
2017-Oct-15 05:57N 34°38' E 134°51'4 0.2
2017-Oct-14 13:13N 34°42' E 134°50'7 7.8
2017-Oct-14 12:23N 34°37' E 134°56'411.2
2017-Oct-14 11:59N 34°37' E 135°01'511.3
2017-Oct-14 11:30N 34°36' E 135°08'612.7
2017-Oct-14 11:00N 34°38' E 135°15'4 8.9
2017-Oct-14 10:30N 34°42' E 135°14'0 0.1
2017-Oct-14 09:55N 34°42' E 135°14'0 0.0
2017-Oct-14 09:25N 34°42' E 135°14'0 0.0
2017-Oct-14 08:55N 34°42' E 135°14'0 0.0
2017-Oct-14 08:19N 34°42' E 135°14'0 0.0
2017-Oct-14 07:55N 34°42' E 135°14'0 0.0
2017-Oct-14 07:25N 34°42' E 135°14'0 0.0
2017-Oct-14 06:55N 34°42' E 135°14'0 0.0
2017-Oct-14 06:25N 34°42' E 135°14'0 0.0
2017-Oct-14 05:55N 34°42' E 135°14'0 0.0
2017-Oct-14 05:19N 34°42' E 135°14'0 0.0
2017-Oct-14 04:43N 34°42' E 135°14'0 0.0
2017-Oct-14 04:25N 34°42' E 135°14'0 0.0
2017-Oct-14 03:55N 34°42' E 135°14'0 0.0
2017-Oct-14 03:19N 34°42' E 135°14'0 0.0
2017-Oct-14 02:55N 34°42' E 135°14'0 0.0
2017-Oct-14 02:25N 34°42' E 135°14'0 0.0
2017-Oct-14 01:55N 34°42' E 135°14'0 0.0
2017-Oct-14 01:25N 34°42' E 135°14'0 0.0
2017-Oct-14 00:55N 34°42' E 135°14'0 0.0
2017-Oct-14 00:07N 34°42' E 135°14'0 0.0
2017-Oct-13 23:55N 34°42' E 135°14'1 1.4
2017-Oct-13 23:30N 34°41' E 135°15'4 8.0
2017-Oct-13 23:00N 34°38' E 135°16'611.1
2017-Oct-13 22:30N 34°35' E 135°10'611.9
2017-Oct-13 22:00N 34°36' E 135°03'611.9
2017-Oct-13 21:28N 34°36' E 134°55'612.0
2017-Oct-13 20:57N 34°40' E 134°50'1 0.0
2017-Oct-12 12:12N 34°41' E 134°49'510.4
2017-Oct-12 11:41N 34°37' E 134°54'212.0
2017-Oct-12 11:29N 34°37' E 134°57'510.7
2017-Oct-12 11:00N 34°37' E 135°03'510.9
2017-Oct-12 10:30N 34°36' E 135°09'612.1
2017-Oct-12 10:00N 34°39' E 135°16'4 7.4
2017-Oct-12 09:31N 34°42' E 135°14'0 0.1
2017-Oct-12 08:56N 34°42' E 135°14'0 0.0
2017-Oct-12 08:26N 34°42' E 135°14'0 0.0
2017-Oct-12 07:44N 34°42' E 135°14'0 0.0
2017-Oct-12 07:20N 34°42' E 135°14'0 0.0
2017-Oct-12 06:56N 34°42' E 135°14'0 0.0
2017-Oct-12 06:20N 34°42' E 135°14'0 0.0
2017-Oct-12 05:56N 34°42' E 135°14'0 0.0
2017-Oct-12 05:26N 34°42' E 135°14'0 0.0
2017-Oct-12 04:56N 34°42' E 135°14'0 0.0
2017-Oct-12 04:26N 34°42' E 135°14'0 0.0
2017-Oct-12 03:56N 34°42' E 135°14'0 0.0
2017-Oct-12 03:26N 34°42' E 135°14'0 0.0
2017-Oct-12 02:56N 34°42' E 135°14'0 0.0
2017-Oct-12 02:20N 34°42' E 135°14'0 0.0
2017-Oct-12 01:44N 34°42' E 135°14'0 0.0
2017-Oct-12 01:26N 34°42' E 135°14'0 0.0
2017-Oct-12 00:56N 34°42' E 135°14'0 0.0
2017-Oct-12 00:20N 34°42' E 135°14'0 0.0
2017-Oct-11 23:56N 34°42' E 135°14'0 0.0
2017-Oct-11 23:26N 34°42' E 135°14'0 0.0
2017-Oct-11 22:56N 34°42' E 135°14'0 0.0
2017-Oct-11 22:30N 34°42' E 135°14'1 1.7
2017-Oct-11 22:01N 34°41' E 135°15'4 8.0
2017-Oct-11 21:30N 34°37' E 135°16'510.7
2017-Oct-11 21:00N 34°35' E 135°10'713.5
2017-Oct-11 20:30N 34°36' E 135°02'713.6
2017-Oct-11 20:00N 34°37' E 134°54'  

Dump ship's entire track history